Wetterdaten: Woche 15.04.13 - 21.04.13 (KW16)
Datum Zeit Temp. A. Feuchte A. Luftdruck Regen Wind Richtung Taupunkt Windchill Windben
15.04.2013 00:00 7,7 C 72 % 1027,4 hPa 0,0 l/m 0,1 km/h N 2,9 C 7,7 C 2,4 km/h
15.04.2013 01:00 6,3 C 75 % 1027,1 hPa 0,0 l/m 0,0 km/h N 2,2 C 6,3 C 0,4 km/h
15.04.2013 02:00 5,3 C 78 % 1026,6 hPa 0,0 l/m 0,0 km/h N 1,8 C 5,3 C 0,0 km/h
15.04.2013 03:00 4,3 C 81 % 1026,5 hPa 0,0 l/m 0,0 km/h N 1,3 C 4,3 C 0,0 km/h
15.04.2013 04:00 3,6 C 82 % 1026,4 hPa 0,0 l/m 0,0 km/h N 0,9 C 3,6 C 0,4 km/h
15.04.2013 05:00 2,9 C 84 % 1026,5 hPa 0,0 l/m 0,0 km/h N 0,4 C 2,9 C 0,0 km/h
15.04.2013 06:00 2,5 C 84 % 1026,5 hPa 0,0 l/m 0,0 km/h N 0,1 C 2,5 C 0,0 km/h
15.04.2013 07:00 4,4 C 82 % 1026,5 hPa 0,0 l/m 0,0 km/h N 1,6 C 4,4 C 0,0 km/h
15.04.2013 08:00 9,2 C 76 % 1026,3 hPa 0,0 l/m 0,2 km/h N 5,2 C 9,2 C 2,0 km/h
15.04.2013 09:00 13,0 C 58 % 1026,1 hPa 0,0 l/m 1,0 km/h N 4,8 C 13,0 C 6,4 km/h
15.04.2013 10:00 15,6 C 53 % 1026,0 hPa 0,0 l/m 1,3 km/h N 5,9 C 15,6 C 7,2 km/h
15.04.2013 11:00 17,3 C 45 % 1025,5 hPa 0,0 l/m 3,8 km/h N 5,3 C 17,3 C 17,7 km/h
15.04.2013 12:00 18,1 C 40 % 1025,3 hPa 0,0 l/m 7,4 km/h N 4,2 C 17,6 C 21,7 km/h
15.04.2013 13:00 18,9 C 41 % 1024,9 hPa 0,0 l/m 6,5 km/h N 5,2 C 18,7 C 19,7 km/h
15.04.2013 14:00 19,7 C 39 % 1024,3 hPa 0,0 l/m 5,7 km/h N 5,4 C 19,6 C 18,9 km/h
15.04.2013 15:00 19,5 C 38 % 1023,5 hPa 0,0 l/m 6,9 km/h N 4,7 C 19,1 C 19,3 km/h
15.04.2013 16:00 19,1 C 39 % 1023,1 hPa 0,0 l/m 6,2 km/h N 4,6 C 18,9 C 18,9 km/h
15.04.2013 17:00 18,6 C 39 % 1022,9 hPa 0,0 l/m 5,7 km/h N 4,4 C 18,6 C 22,1 km/h
15.04.2013 18:00 17,8 C 41 % 1022,7 hPa 0,0 l/m 5,4 km/h N 4,4 C 17,8 C 19,7 km/h
15.04.2013 19:00 16,6 C 43 % 1022,7 hPa 0,0 l/m 5,1 km/h N 3,9 C 16,6 C 14,5 km/h
15.04.2013 20:00 15,0 C 46 % 1022,8 hPa 0,0 l/m 3,2 km/h N 3,5 C 15,0 C 9,7 km/h
15.04.2013 21:00 13,1 C 50 % 1022,8 hPa 0,0 l/m 0,1 km/h N 3,0 C 13,1 C 2,8 km/h
15.04.2013 22:00 11,0 C 57 % 1022,8 hPa 0,0 l/m 0,4 km/h N 2,8 C 11,0 C 2,4 km/h
15.04.2013 23:00 8,3 C 64 % 1023,0 hPa 0,0 l/m 0,0 km/h N 1,9 C 8,3 C 0,0 km/h
16.04.2013 00:00 6,4 C 73 % 1023,2 hPa 0,0 l/m 0,0 km/h N 1,9 C 6,4 C 0,0 km/h
16.04.2013 01:00 5,3 C 77 % 1023,0 hPa 0,0 l/m 0,0 km/h N 1,5 C 5,3 C 0,0 km/h
16.04.2013 02:00 4,5 C 79 % 1022,7 hPa 0,0 l/m 0,0 km/h N 1,2 C 4,5 C 0,0 km/h
16.04.2013 03:00 4,0 C 81 % 1022,3 hPa 0,0 l/m 0,0 km/h N 1,0 C 4,0 C 0,0 km/h
16.04.2013 04:00 3,3 C 81 % 1021,9 hPa 0,0 l/m 0,0 km/h N 0,4 C 3,3 C 0,0 km/h
16.04.2013 05:00 3,2 C 83 % 1021,8 hPa 0,0 l/m 0,0 km/h N 0,6 C 3,2 C 0,0 km/h
16.04.2013 06:00 3,2 C 83 % 1022,1 hPa 0,0 l/m 0,0 km/h N 0,6 C 3,2 C 0,0 km/h
16.04.2013 07:00 5,5 C 83 % 1022,4 hPa 0,0 l/m 0,6 km/h N 2,7 C 5,5 C 3,6 km/h
16.04.2013 08:00 11,6 C 61 % 1022,3 hPa 0,0 l/m 8,4 km/h N 4,3 C 10,3 C 18,9 km/h
16.04.2013 09:00 14,5 C 52 % 1022,3 hPa 0,0 l/m 11,1 km/h N 4,8 C 12,1 C 25,7 km/h
16.04.2013 10:00 16,5 C 45 % 1022,5 hPa 0,0 l/m 12,0 km/h N 4,6 C 14,1 C 30,2 km/h
16.04.2013 11:00 18,1 C 42 % 1022,7 hPa 0,0 l/m 12,1 km/h N 4,9 C 15,8 C 27,8 km/h
16.04.2013 12:00 19,2 C 40 % 1022,5 hPa 0,0 l/m 12,4 km/h N 5,3 C 17,0 C 20,5 km/h
16.04.2013 13:00 19,7 C 39 % 1022,3 hPa 0,0 l/m 12,9 km/h N 5,2 C 17,5 C 22,5 km/h
16.04.2013 14:00 20,3 C 39 % 1021,9 hPa 0,0 l/m 9,8 km/h N 5,7 C 19,0 C 16,9 km/h
16.04.2013 15:00 20,3 C 37 % 1021,4 hPa 0,0 l/m 14,1 km/h N 5,0 C 17,8 C 25,7 km/h
16.04.2013 16:00 20,2 C 36 % 1021,2 hPa 0,0 l/m 10,6 km/h N 4,7 C 18,8 C 17,7 km/h
16.04.2013 17:00 20,0 C 36 % 1020,9 hPa 0,0 l/m 11,5 km/h N 4,6 C 18,3 C 20,5 km/h
16.04.2013 18:00 19,5 C 37 % 1020,9 hPa 0,0 l/m 9,2 km/h N 4,3 C 18,4 C 20,9 km/h
16.04.2013 19:00 18,4 C 39 % 1020,9 hPa 0,0 l/m 5,4 km/h N 4,1 C 18,1 C 14,5 km/h
16.04.2013 20:00 16,1 C 45 % 1021,3 hPa 0,0 l/m 0,5 km/h N 4,2 C 16,1 C 4,0 km/h
16.04.2013 21:00 14,1 C 50 % 1021,6 hPa 0,0 l/m 0,5 km/h N 3,9 C 14,1 C 4,8 km/h
16.04.2013 22:00 11,5 C 58 % 1021,8 hPa 0,0 l/m 0,1 km/h N 3,6 C 11,5 C 1,6 km/h
16.04.2013 23:00 9,8 C 64 % 1022,1 hPa 0,0 l/m 0,0 km/h N 3,2 C 9,8 C 0,4 km/h
17.04.2013 00:00 8,9 C 70 % 1022,1 hPa 0,0 l/m 0,0 km/h N 3,6 C 8,9 C 0,0 km/h
17.04.2013 01:00 8,7 C 74 % 1022,1 hPa 0,0 l/m 0,0 km/h N 4,4 C 8,7 C 0,0 km/h
17.04.2013 02:00 9,2 C 77 % 1022,0 hPa 0,0 l/m 0,0 km/h N 5,4 C 9,2 C 0,0 km/h
17.04.2013 03:00 9,9 C 77 % 1022,0 hPa 0,0 l/m 0,0 km/h N 6,0 C 9,9 C 0,0 km/h
17.04.2013 04:00 10,2 C 76 % 1021,8 hPa 0,0 l/m 0,0 km/h N 6,1 C 10,2 C 0,0 km/h
17.04.2013 05:00 10,0 C 77 % 1021,9 hPa 0,0 l/m 0,0 km/h N 6,1 C 10,0 C 0,0 km/h
17.04.2013 06:00 9,9 C 77 % 1022,3 hPa 0,0 l/m 0,0 km/h N 5,9 C 9,9 C 1,2 km/h
17.04.2013 07:00 10,3 C 79 % 1022,8 hPa 0,0 l/m 0,0 km/h N 6,8 C 10,3 C 0,4 km/h
17.04.2013 08:00 11,6 C 75 % 1023,2 hPa 0,0 l/m 0,0 km/h N 7,4 C 11,6 C 0,8 km/h
17.04.2013 09:00 14,3 C 66 % 1023,1 hPa 0,0 l/m 0,3 km/h N 8,1 C 14,3 C 2,8 km/h
17.04.2013 10:00 18,2 C 59 % 1023,1 hPa 0,0 l/m 0,9 km/h N 10,1 C 18,2 C 6,0 km/h
17.04.2013 11:00 20,0 C 56 % 1023,0 hPa 0,0 l/m 1,8 km/h N 11,0 C 20,0 C 7,6 km/h
17.04.2013 12:00 21,4 C 55 % 1022,5 hPa 0,0 l/m 3,2 km/h N 11,9 C 21,4 C 10,9 km/h
17.04.2013 13:00 22,2 C 51 % 1022,0 hPa 0,0 l/m 3,9 km/h N 11,6 C 22,2 C 12,9 km/h
17.04.2013 14:00 17,0 C 73 % 1022,9 hPa 3,9 l/m 8,8 km/h N 12,1 C 15,6 C 26,9 km/h
17.04.2013 15:00 17,4 C 79 % 1022,2 hPa 0,0 l/m 2,5 km/h N 13,6 C 17,4 C 8,4 km/h
17.04.2013 16:00 20,5 C 60 % 1021,5 hPa 0,0 l/m 3,0 km/h N 12,4 C 20,5 C 9,3 km/h
17.04.2013 17:00 22,1 C 49 % 1021,1 hPa 0,0 l/m 2,1 km/h N 10,9 C 22,1 C 6,8 km/h
17.04.2013 18:00 21,3 C 57 % 1021,0 hPa 0,0 l/m 0,1 km/h N 12,3 C 21,3 C 2,8 km/h
17.04.2013 19:00 19,8 C 63 % 1021,2 hPa 0,0 l/m 0,2 km/h N 12,4 C 19,8 C 2,0 km/h
17.04.2013 20:00 17,9 C 73 % 1021,5 hPa 0,0 l/m 0,1 km/h N 12,9 C 17,9 C 1,2 km/h
17.04.2013 21:00 16,5 C 77 % 1021,5 hPa 0,0 l/m 0,0 km/h N 12,4 C 16,5 C 0,0 km/h
17.04.2013 22:00 15,3 C 78 % 1021,2 hPa 0,0 l/m 0,1 km/h N 11,6 C 15,3 C 0,8 km/h
17.04.2013 23:00 13,7 C 80 % 1021,0 hPa 0,0 l/m 0,0 km/h N 10,4 C 13,7 C 0,0 km/h
18.04.2013 00:00 12,2 C 83 % 1021,1 hPa 0,0 l/m 0,0 km/h N 9,4 C 12,2 C 0,0 km/h
18.04.2013 01:00 11,4 C 83 % 1021,0 hPa 0,0 l/m 0,1 km/h N 8,5 C 11,4 C 1,2 km/h
18.04.2013 02:00 10,7 C 82 % 1021,1 hPa 0,0 l/m 0,0 km/h N 7,7 C 10,7 C 0,4 km/h
18.04.2013 03:00 9,6 C 82 % 1020,9 hPa 0,0 l/m 0,0 km/h N 6,7 C 9,6 C 0,0 km/h
18.04.2013 04:00 8,9 C 82 % 1020,5 hPa 0,0 l/m 0,0 km/h N 5,9 C 8,9 C 0,0 km/h
18.04.2013 05:00 8,3 C 81 % 1020,5 hPa 0,0 l/m 0,0 km/h N 5,2 C 8,3 C 0,0 km/h
18.04.2013 06:00 7,7 C 81 % 1020,4 hPa 0,0 l/m 0,0 km/h N 4,6 C 7,7 C 0,0 km/h
18.04.2013 07:00 9,1 C 78 % 1020,4 hPa 0,0 l/m 0,0 km/h N 5,3 C 9,1 C 0,4 km/h
18.04.2013 08:00 12,4 C 76 % 1020,0 hPa 0,0 l/m 2,5 km/h N 8,3 C 12,4 C 6,4 km/h
18.04.2013 09:00 15,3 C 78 % 1019,8 hPa 0,0 l/m 3,0 km/h N 11,4 C 15,3 C 9,7 km/h
18.04.2013 10:00 17,8 C 69 % 1019,3 hPa 0,0 l/m 4,1 km/h N 11,9 C 17,8 C 11,7 km/h
18.04.2013 11:00 20,3 C 63 % 1018,9 hPa 0,0 l/m 3,1 km/h N 12,9 C 20,3 C 11,7 km/h
18.04.2013 12:00 22,4 C 57 % 1018,3 hPa 0,0 l/m 5,2 km/h N 13,3 C 22,3 C 16,1 km/h
18.04.2013 13:00 23,5 C 51 % 1017,7 hPa 0,0 l/m 6,3 km/h N 12,6 C 23,3 C 19,3 km/h
18.04.2013 14:00 25,0 C 46 % 1017,0 hPa 0,0 l/m 5,3 km/h N 12,6 C 25,0 C 18,1 km/h
18.04.2013 15:00 24,8 C 45 % 1016,4 hPa 0,0 l/m 6,4 km/h N 11,9 C 24,7 C 19,3 km/h
18.04.2013 16:00 24,6 C 45 % 1016,1 hPa 0,0 l/m 4,4 km/h N 11,9 C 24,6 C 16,9 km/h
18.04.2013 17:00 24,1 C 46 % 1015,9 hPa 0,0 l/m 4,7 km/h N 11,8 C 24,1 C 18,1 km/h
18.04.2013 18:00 23,5 C 48 % 1015,7 hPa 0,0 l/m 4,8 km/h N 11,7 C 23,4 C 15,3 km/h
18.04.2013 19:00 22,5 C 50 % 1015,7 hPa 0,0 l/m 3,8 km/h N 11,5 C 22,5 C 10,4 km/h
18.04.2013 20:00 20,8 C 55 % 1016,0 hPa 0,0 l/m 0,2 km/h N 11,2 C 20,8 C 2,8 km/h
18.04.2013 21:00 17,3 C 65 % 1016,3 hPa 0,0 l/m 0,0 km/h N 10,6 C 17,3 C 0,0 km/h
18.04.2013 22:00 14,9 C 73 % 1016,1 hPa 0,0 l/m 0,0 km/h N 10,1 C 14,9 C 0,0 km/h
18.04.2013 23:00 13,4 C 78 % 1015,9 hPa 0,0 l/m 0,0 km/h N 9,7 C 13,4 C 0,0 km/h
19.04.2013 00:00 12,5 C 81 % 1015,9 hPa 0,0 l/m 0,0 km/h N 9,3 C 12,5 C 0,4 km/h
19.04.2013 01:00 12,0 C 82 % 1015,7 hPa 0,0 l/m 0,0 km/h N 9,1 C 12,0 C 0,4 km/h
19.04.2013 02:00 11,4 C 83 % 1015,4 hPa 0,0 l/m 0,0 km/h N 8,6 C 11,4 C 0,4 km/h
19.04.2013 03:00 10,9 C 83 % 1015,5 hPa 0,0 l/m 0,0 km/h N 8,1 C 10,9 C 0,0 km/h
19.04.2013 04:00 11,0 C 82 % 1015,9 hPa 0,0 l/m 0,1 km/h N 8,0 C 11,0 C 2,0 km/h
19.04.2013 05:00 12,0 C 80 % 1016,0 hPa 0,0 l/m 0,4 km/h N 8,7 C 12,0 C 4,8 km/h
19.04.2013 06:00 16,4 C 80 % 1016,3 hPa 0,0 l/m 7,8 km/h N 12,9 C 15,5 C 22,1 km/h
19.04.2013 07:00 16,7 C 80 % 1017,0 hPa 0,0 l/m 8,1 km/h N 13,1 C 15,7 C 23,8 km/h
19.04.2013 08:00 16,6 C 79 % 1017,7 hPa 0,0 l/m 9,4 km/h N 13,0 C 15,2 C 25,8 km/h
19.04.2013 09:00 16,4 C 78 % 1018,7 hPa 0,0 l/m 9,5 km/h N 12,5 C 14,9 C 21,7 km/h
19.04.2013 10:00 15,9 C 79 % 1019,3 hPa 0,0 l/m 7,8 km/h N 12,2 C 15,2 C 18,9 km/h
19.04.2013 11:00 15,1 C 80 % 1019,7 hPa 0,0 l/m 8,2 km/h N 11,6 C 14,2 C 20,1 km/h
19.04.2013 12:00 14,4 C 82 % 1019,6 hPa 1,6 l/m 6,2 km/h N 11,4 C 14,3 C 16,5 km/h
19.04.2013 13:00 14,4 C 83 % 1019,5 hPa 0,5 l/m 6,6 km/h N 11,4 C 14,1 C 16,1 km/h
19.04.2013 14:00 14,3 C 83 % 1019,4 hPa 0,0 l/m 8,5 km/h N 11,3 C 13,1 C 20,9 km/h
19.04.2013 15:00 13,8 C 81 % 1019,1 hPa 0,0 l/m 10,2 km/h N 10,5 C 11,7 C 22,1 km/h
19.04.2013 16:00 13,4 C 79 % 1019,0 hPa 0,0 l/m 5,6 km/h N 9,9 C 13,4 C 14,5 km/h
19.04.2013 17:00 13,4 C 79 % 1018,8 hPa 0,0 l/m 3,8 km/h N 9,8 C 13,4 C 11,3 km/h
19.04.2013 18:00 13,6 C 78 % 1018,6 hPa 0,0 l/m 5,0 km/h N 9,7 C 13,6 C 12,1 km/h
19.04.2013 19:00 13,0 C 81 % 1018,6 hPa 0,5 l/m 4,2 km/h N 9,8 C 13,0 C 11,7 km/h
19.04.2013 20:00 12,3 C 83 % 1018,8 hPa 0,0 l/m 5,0 km/h N 9,4 C 12,3 C 13,7 km/h
19.04.2013 21:00 12,3 C 83 % 1019,1 hPa 0,0 l/m 4,9 km/h N 9,4 C 12,3 C 13,7 km/h
19.04.2013 22:00 12,2 C 83 % 1019,2 hPa 0,0 l/m 7,2 km/h N 9,4 C 11,6 C 19,3 km/h
19.04.2013 23:00 12,2 C 83 % 1019,5 hPa 0,0 l/m 7,8 km/h N 9,4 C 11,3 C 18,9 km/h
20.04.2013 00:00 11,9 C 83 % 1020,2 hPa 0,0 l/m 5,8 km/h N 9,1 C 11,9 C 16,9 km/h
20.04.2013 01:00 11,4 C 83 % 1020,3 hPa 0,0 l/m 7,1 km/h N 8,5 C 10,6 C 17,3 km/h
20.04.2013 02:00 10,9 C 83 % 1020,4 hPa 0,0 l/m 7,3 km/h N 8,2 C 10,3 C 18,9 km/h
20.04.2013 03:00 10,6 C 82 % 1020,6 hPa 0,0 l/m 7,2 km/h N 7,8 C 10,1 C 19,7 km/h
20.04.2013 04:00 10,1 C 83 % 1020,8 hPa 0,0 l/m 7,9 km/h N 7,3 C 9,0 C 21,3 km/h
20.04.2013 05:00 9,8 C 83 % 1020,8 hPa 0,0 l/m 7,7 km/h N 7,0 C 8,9 C 17,7 km/h
20.04.2013 06:00 9,6 C 82 % 1021,1 hPa 0,0 l/m 6,3 km/h N 6,7 C 9,5 C 17,3 km/h
20.04.2013 07:00 9,8 C 82 % 1021,6 hPa 0,0 l/m 6,9 km/h N 6,8 C 9,2 C 18,1 km/h
20.04.2013 08:00 10,1 C 81 % 1021,9 hPa 0,0 l/m 7,7 km/h N 7,0 C 9,3 C 18,5 km/h
20.04.2013 09:00 10,6 C 80 % 1022,1 hPa 0,0 l/m 8,1 km/h N 7,2 C 9,4 C 18,5 km/h
20.04.2013 10:00 11,2 C 79 % 1022,3 hPa 0,0 l/m 8,5 km/h N 7,7 C 9,8 C 20,1 km/h
20.04.2013 11:00 11,7 C 78 % 1022,3 hPa 0,0 l/m 8,8 km/h N 8,0 C 10,1 C 22,1 km/h
20.04.2013 12:00 12,1 C 77 % 1022,1 hPa 0,0 l/m 7,8 km/h N 8,1 C 11,1 C 19,7 km/h
20.04.2013 13:00 13,0 C 76 % 1021,9 hPa 0,0 l/m 8,6 km/h N 8,8 C 11,6 C 19,7 km/h
20.04.2013 14:00 13,5 C 74 % 1021,7 hPa 0,0 l/m 9,3 km/h N 9,0 C 11,8 C 20,5 km/h
20.04.2013 15:00 14,4 C 73 % 1021,1 hPa 0,0 l/m 9,3 km/h N 9,5 C 12,8 C 21,7 km/h
20.04.2013 16:00 14,9 C 71 % 1020,7 hPa 0,0 l/m 7,4 km/h N 9,7 C 14,2 C 18,1 km/h
20.04.2013 17:00 14,9 C 71 % 1020,4 hPa 0,0 l/m 6,5 km/h N 9,7 C 14,6 C 15,3 km/h
20.04.2013 18:00 14,8 C 71 % 1020,3 hPa 0,0 l/m 4,2 km/h N 9,5 C 14,8 C 11,7 km/h
20.04.2013 19:00 13,9 C 72 % 1020,7 hPa 0,0 l/m 3,6 km/h N 8,9 C 13,9 C 12,5 km/h
20.04.2013 20:00 12,6 C 76 % 1021,3 hPa 0,0 l/m 2,0 km/h N 8,4 C 12,6 C 8,9 km/h
20.04.2013 21:00 11,6 C 79 % 1021,7 hPa 0,0 l/m 2,5 km/h N 7,9 C 11,6 C 8,4 km/h
20.04.2013 22:00 10,8 C 80 % 1021,9 hPa 0,0 l/m 1,4 km/h N 7,4 C 10,8 C 7,6 km/h
20.04.2013 23:00 10,0 C 81 % 1022,0 hPa 0,0 l/m 2,4 km/h N 6,8 C 10,0 C 8,4 km/h
21.04.2013 00:00 9,4 C 81 % 1021,8 hPa 0,0 l/m 3,2 km/h N 6,4 C 9,4 C 9,7 km/h
21.04.2013 01:00 8,9 C 81 % 1021,6 hPa 0,0 l/m 2,3 km/h N 5,8 C 8,9 C 8,4 km/h
21.04.2013 02:00 8,5 C 82 % 1021,2 hPa 0,0 l/m 2,0 km/h N 5,5 C 8,5 C 8,0 km/h
21.04.2013 03:00 7,8 C 82 % 1021,0 hPa 0,0 l/m 0,1 km/h N 5,0 C 7,8 C 2,8 km/h
21.04.2013 04:00 7,1 C 84 % 1020,8 hPa 0,0 l/m 0,3 km/h N 4,6 C 7,1 C 4,4 km/h
21.04.2013 05:00 6,7 C 84 % 1020,6 hPa 0,0 l/m 0,4 km/h N 4,2 C 6,7 C 4,4 km/h
21.04.2013 06:00 6,5 C 84 % 1020,6 hPa 0,0 l/m 0,5 km/h N 3,9 C 6,5 C 4,4 km/h
21.04.2013 07:00 7,3 C 83 % 1020,8 hPa 0,0 l/m 0,4 km/h N 4,6 C 7,3 C 4,0 km/h
21.04.2013 08:00 9,3 C 82 % 1020,6 hPa 0,0 l/m 0,9 km/h N 6,4 C 9,3 C 5,2 km/h
21.04.2013 09:00 11,7 C 76 % 1020,2 hPa 0,0 l/m 0,6 km/h N 7,6 C 11,7 C 5,2 km/h
21.04.2013 10:00 14,0 C 69 % 1019,8 hPa 0,0 l/m 1,0 km/h N 8,3 C 14,0 C 4,8 km/h
21.04.2013 11:00 15,3 C 66 % 1019,3 hPa 0,0 l/m 2,0 km/h N 9,0 C 15,3 C 8,4 km/h
21.04.2013 12:00 17,0 C 63 % 1018,5 hPa 0,0 l/m 1,7 km/h N 9,9 C 17,0 C 7,6 km/h
21.04.2013 13:00 19,0 C 57 % 1017,7 hPa 0,0 l/m 2,3 km/h N 10,3 C 19,0 C 10,5 km/h
21.04.2013 14:00 20,4 C 52 % 1016,9 hPa 0,0 l/m 2,5 km/h N 10,0 C 20,4 C 11,3 km/h
21.04.2013 15:00 20,7 C 52 % 1016,1 hPa 0,0 l/m 2,4 km/h N 10,4 C 20,7 C 10,9 km/h
21.04.2013 16:00 20,9 C 50 % 1015,3 hPa 0,0 l/m 3,2 km/h N 10,0 C 20,9 C 12,9 km/h
21.04.2013 17:00 20,8 C 49 % 1014,6 hPa 0,0 l/m 2,9 km/h N 9,6 C 20,8 C 11,7 km/h
21.04.2013 18:00 20,4 C 50 % 1013,9 hPa 0,0 l/m 2,5 km/h N 9,5 C 20,4 C 12,1 km/h
21.04.2013 19:00 19,5 C 52 % 1013,8 hPa 0,0 l/m 0,4 km/h N 9,5 C 19,5 C 2,4 km/h
21.04.2013 20:00 16,5 C 61 % 1014,3 hPa 0,0 l/m 0,0 km/h N 8,9 C 16,5 C 0,0 km/h
21.04.2013 21:00 13,5 C 72 % 1014,4 hPa 0,0 l/m 0,0 km/h N 8,4 C 13,5 C 0,4 km/h
21.04.2013 22:00 12,4 C 77 % 1014,3 hPa 0,0 l/m 0,2 km/h N 8,4 C 12,4 C 3,2 km/h
21.04.2013 23:00 11,9 C 77 % 1014,3 hPa 0,0 l/m 0,0 km/h N 8,0 C 11,9 C 0,4 km/h
Min-Datum _ 15.04.13 16.04.13 21.04.13 - 15.04.13 - 15.04.13 15.04.13 15.04.13
_ Min-Zeit 06:30 15:50 18:45 - 00:15 - 06:00 06:00 01:15
Minimum _ 2,4 C 36 % 1013,7 hPa - 0,0 km/h - 0,1 C 2,5 C 0,0 km/h
Max-Datum _ 18.04.13 15.04.13 15.04.13 17.04.13 16.04.13 - 17.04.13 18.04.13 17.04.13
_ Max-Zeit 14:45 05:30 00:15 14:15 15:50 - 15:30 14:45 14:00
Maximum _ 25,2 C 84 % 1027,4 hPa 3,9 l/m 17,6 km/h
N
- 13,9 C 25,2 C 45,1 km/h
N
Durchschnitt _ 13,7 C 68 % 1020,7 hPa #6,5 l/m 3,5 km/h N 7,5 C 13,4 C 9,8 km/h